sensor_id;sensor_type;location;lat;lon;timestamp;temperature;humidity
46634;DHT22;32362;49.986;8.026;2023-06-04T00:05:52;17.00;55.10
46634;DHT22;32362;49.986;8.026;2023-06-04T00:32:32;16.60;56.70
46634;DHT22;32362;49.986;8.026;2023-06-04T00:59:13;16.30;57.20
46634;DHT22;32362;49.986;8.026;2023-06-04T01:25:54;15.20;59.30
46634;DHT22;32362;49.986;8.026;2023-06-04T01:52:39;15.00;59.60
46634;DHT22;32362;49.986;8.026;2023-06-04T02:19:20;14.60;60.00
46634;DHT22;32362;49.986;8.026;2023-06-04T02:46:00;14.30;61.30
46634;DHT22;32362;49.986;8.026;2023-06-04T03:12:41;14.00;63.00
46634;DHT22;32362;49.986;8.026;2023-06-04T03:39:23;13.50;64.80
46634;DHT22;32362;49.986;8.026;2023-06-04T04:06:05;13.10;66.50
46634;DHT22;32362;49.986;8.026;2023-06-04T04:32:46;13.40;67.60
46634;DHT22;32362;49.986;8.026;2023-06-04T04:59:31;13.50;68.50
46634;DHT22;32362;49.986;8.026;2023-06-04T05:26:13;13.90;69.90
46634;DHT22;32362;49.986;8.026;2023-06-04T05:52:54;14.60;68.10
46634;DHT22;32362;49.986;8.026;2023-06-04T06:19:36;15.40;63.80
46634;DHT22;32362;49.986;8.026;2023-06-04T06:46:18;16.20;63.90
46634;DHT22;32362;49.986;8.026;2023-06-04T07:12:59;17.20;59.90
46634;DHT22;32362;49.986;8.026;2023-06-04T07:39:39;18.30;55.80
46634;DHT22;32362;49.986;8.026;2023-06-04T08:06:20;19.20;51.10
46634;DHT22;32362;49.986;8.026;2023-06-04T08:33:01;20.00;46.70
46634;DHT22;32362;49.986;8.026;2023-06-04T08:59:42;20.90;47.40
46634;DHT22;32362;49.986;8.026;2023-06-04T09:26:24;21.90;44.40
46634;DHT22;32362;49.986;8.026;2023-06-04T09:53:15;23.90;40.90
46634;DHT22;32362;49.986;8.026;2023-06-04T10:19:58;27.60;36.80
46634;DHT22;32362;49.986;8.026;2023-06-04T10:46:40;32.50;32.20
46634;DHT22;32362;49.986;8.026;2023-06-04T11:13:25;34.50;29.70
46634;DHT22;32362;49.986;8.026;2023-06-04T11:40:26;34.40;29.90
46634;DHT22;32362;49.986;8.026;2023-06-04T12:07:11;34.00;30.90
46634;DHT22;32362;49.986;8.026;2023-06-04T12:33:52;30.60;34.90
46634;DHT22;32362;49.986;8.026;2023-06-04T13:00:32;30.10;33.30
46634;DHT22;32362;49.986;8.026;2023-06-04T13:27:13;29.90;32.10
46634;DHT22;32362;49.986;8.026;2023-06-04T13:53:53;29.80;35.70
46634;DHT22;32362;49.986;8.026;2023-06-04T14:20:35;31.10;33.40
46634;DHT22;32362;49.986;8.026;2023-06-04T14:47:16;32.10;30.30
46634;DHT22;32362;49.986;8.026;2023-06-04T15:13:56;31.80;30.50
46634;DHT22;32362;49.986;8.026;2023-06-04T15:40:37;33.30;29.50
46634;DHT22;32362;49.986;8.026;2023-06-04T16:07:18;32.20;29.70
46634;DHT22;32362;49.986;8.026;2023-06-04T16:33:58;32.50;29.90
46634;DHT22;32362;49.986;8.026;2023-06-04T17:00:39;32.10;30.80
46634;DHT22;32362;49.986;8.026;2023-06-04T17:27:19;31.70;31.10
46634;DHT22;32362;49.986;8.026;2023-06-04T17:54:00;29.70;33.90
46634;DHT22;32362;49.986;8.026;2023-06-04T18:20:41;29.30;34.40
46634;DHT22;32362;49.986;8.026;2023-06-04T18:47:21;28.60;35.40
46634;DHT22;32362;49.986;8.026;2023-06-04T19:14:02;27.00;37.00
46634;DHT22;32362;49.986;8.026;2023-06-04T19:40:43;25.60;39.40
46634;DHT22;32362;49.986;8.026;2023-06-04T20:07:24;24.10;40.30
46634;DHT22;32362;49.986;8.026;2023-06-04T20:34:06;23.10;41.70
46634;DHT22;32362;49.986;8.026;2023-06-04T21:00:47;22.30;42.30
46634;DHT22;32362;49.986;8.026;2023-06-04T21:27:28;21.50;44.00
46634;DHT22;32362;49.986;8.026;2023-06-04T21:54:08;20.80;45.40
46634;DHT22;32362;49.986;8.026;2023-06-04T22:20:49;20.60;46.50
46634;DHT22;32362;49.986;8.026;2023-06-04T22:47:29;19.70;47.60
46634;DHT22;32362;49.986;8.026;2023-06-04T23:14:10;18.60;50.20
46634;DHT22;32362;49.986;8.026;2023-06-04T23:40:51;17.70;52.50
